Time;durP1;ratioP1;P1;durP2;ratioP2;P2;SDS_P1;SDS_P2;PMS_P1;PMS_P2;Temp;Humidity;BMP_temperature;BMP_pressure;BME280_temperature;BME280_humidity;BME280_pressure;Samples;Min_cycle;Max_cycle;Signal;HPM_P1;HPM_P2
2022/04/17 00:00:06;;;;;;;4.18;3.55;;;;;;;;;;5053920;28;20033;-69
2022/04/17 00:02:33;;;;;;;3.78;3.33;;;;;;;;;;5054092;28;20025;-73
2022/04/17 00:05:01;;;;;;;3.33;2.25;;;;;;;;;;5052413;28;20036;-73
2022/04/17 00:07:28;;;;;;;4.03;2.33;;;;;;;;;;5053915;28;20032;-72
2022/04/17 00:09:55;;;;;;;3.05;2.10;;;;;;;;;;5052594;28;20021;-70
2022/04/17 00:12:26;;;;;;;3.08;2.55;;;;;;;;;;5052665;28;20123;-74
2022/04/17 00:14:54;;;;;;;3.80;2.97;;;;;;;;;;5054020;28;20020;-73
2022/04/17 00:17:21;;;;;;;3.40;2.80;;;;;;;;;;5052504;28;20409;-73
2022/04/17 00:19:49;;;;;;;3.15;2.78;;;;;;;;;;5053783;28;20025;-73
2022/04/17 00:22:16;;;;;;;4.68;2.90;;;;;;;;;;5053625;28;20024;-73
2022/04/17 00:24:43;;;;;;;4.20;2.80;;;;;;;;;;5052254;28;20112;-74
2022/04/17 00:27:11;;;;;;;5.55;3.17;;;;;;;;;;5053691;28;20115;-73
2022/04/17 00:29:38;;;;;;;4.75;3.00;;;;;;;;;;5053661;28;20029;-73
2022/04/17 00:32:06;;;;;;;3.67;2.22;;;;;;;;;;5053704;28;20040;-73
2022/04/17 00:34:33;;;;;;;3.63;2.50;;;;;;;;;;5053993;28;20047;-72
2022/04/17 00:37:00;;;;;;;4.18;2.33;;;;;;;;;;5053595;28;20021;-72
2022/04/17 00:39:28;;;;;;;4.10;2.65;;;;;;;;;;5052368;28;20063;-73
2022/04/17 00:41:55;;;;;;;4.07;1.90;;;;;;;;;;5052068;28;20029;-73
2022/04/17 00:44:22;;;;;;;3.90;3.08;;;;;;;;;;5053426;28;20425;-73
2022/04/17 00:46:50;;;;;;;5.22;3.58;;;;;;;;;;5053660;28;20512;-72
2022/04/17 00:49:17;;;;;;;5.40;3.63;;;;;;;;;;5053156;28;20076;-72
2022/04/17 00:51:46;;;;;;;4.03;2.85;;;;;;;;;;5053485;28;20032;-72
2022/04/17 00:54:14;;;;;;;4.25;2.53;;;;;;;;;;5052020;28;20029;-73
2022/04/17 00:56:42;;;;;;;5.18;2.35;;;;;;;;;;5051884;28;20486;-73
2022/04/17 00:59:09;;;;;;;4.35;2.53;;;;;;;;;;5053224;28;20026;-71
2022/04/17 01:01:37;;;;;;;2.38;2.17;;;;;;;;;;5053063;28;20507;-73
2022/04/17 01:04:06;;;;;;;3.22;2.25;;;;;;;;;;5051520;28;20033;-73
2022/04/17 01:06:33;;;;;;;3.63;2.50;;;;;;;;;;5052795;28;20432;-72
2022/04/17 01:09:01;;;;;;;3.47;2.47;;;;;;;;;;5052913;28;20021;-70
2022/04/17 01:11:28;;;;;;;3.33;2.38;;;;;;;;;;5052853;28;20056;-72
2022/04/17 01:13:56;;;;;;;3.15;1.85;;;;;;;;;;5052851;28;20020;-72
2022/04/17 01:16:26;;;;;;;3.13;1.98;;;;;;;;;;5052843;28;20021;-72
2022/04/17 01:19:10;;;;;;;2.85;2.30;;;;;;;;;;5051433;28;20079;-72
2022/04/17 01:21:38;;;;;;;3.80;1.88;;;;;;;;;;5052798;28;20021;-72
2022/04/17 01:26:59;;;;;;;3.53;2.05;;;;;;;;;;5052524;28;20043;-73
2022/04/17 01:29:34;;;;;;;3.28;2.30;;;;;;;;;;5051313;28;20032;-72
2022/04/17 01:32:02;;;;;;;2.45;1.80;;;;;;;;;;5052563;28;20028;-74
2022/04/17 01:34:30;;;;;;;7.22;2.95;;;;;;;;;;5051133;28;20025;-73
2022/04/17 01:36:57;;;;;;;3.15;2.40;;;;;;;;;;5051165;28;20028;-73
2022/04/17 01:39:24;;;;;;;3.70;1.80;;;;;;;;;;5050995;28;20032;-73
2022/04/17 01:41:52;;;;;;;7.07;3.20;;;;;;;;;;5050815;28;20409;-74
2022/04/17 01:44:20;;;;;;;3.92;2.08;;;;;;;;;;5050927;28;20025;-71
2022/04/17 01:46:47;;;;;;;3.90;2.30;;;;;;;;;;5052293;28;20435;-73
2022/04/17 01:49:18;;;;;;;2.47;1.75;;;;;;;;;;5051833;28;20492;-73
2022/04/17 01:51:46;;;;;;;2.83;2.00;;;;;;;;;;5052462;28;20490;-73
2022/04/17 01:54:15;;;;;;;3.10;1.70;;;;;;;;;;5052090;28;20478;-73
2022/04/17 01:56:42;;;;;;;4.32;2.40;;;;;;;;;;5050595;28;20401;-73
2022/04/17 01:59:10;;;;;;;4.00;2.08;;;;;;;;;;5052050;28;20025;-73
2022/04/17 02:01:38;;;;;;;3.25;1.58;;;;;;;;;;5052065;28;20017;-74
2022/04/17 02:04:06;;;;;;;2.17;1.90;;;;;;;;;;5052042;28;20033;-74
2022/04/17 02:06:33;;;;;;;1.80;1.40;;;;;;;;;;5052087;28;20199;-74
2022/04/17 02:09:00;;;;;;;3.22;1.77;;;;;;;;;;5050481;28;20025;-74
2022/04/17 02:11:28;;;;;;;4.68;1.60;;;;;;;;;;5050869;28;20048;-73
2022/04/17 02:13:57;;;;;;;3.47;1.80;;;;;;;;;;5051949;28;20059;-74
2022/04/17 02:16:24;;;;;;;4.22;1.95;;;;;;;;;;5050762;28;20021;-73
2022/04/17 02:18:54;;;;;;;2.83;1.63;;;;;;;;;;5052040;28;20075;-74
2022/04/17 02:21:22;;;;;;;2.80;1.50;;;;;;;;;;5050694;28;20021;-74
2022/04/17 02:23:49;;;;;;;6.22;2.20;;;;;;;;;;5050706;28;20060;-74
2022/04/17 02:26:17;;;;;;;4.47;2.00;;;;;;;;;;5050593;28;20049;-74
2022/04/17 02:28:44;;;;;;;2.65;1.50;;;;;;;;;;5051972;28;20017;-73
2022/04/17 02:31:12;;;;;;;3.35;1.65;;;;;;;;;;5052043;28;20029;-73
2022/04/17 02:33:39;;;;;;;2.45;1.63;;;;;;;;;;5050491;28;20478;-75
2022/04/17 02:36:07;;;;;;;3.05;1.52;;;;;;;;;;5050621;28;20017;-73
2022/04/17 02:38:34;;;;;;;2.53;0.85;;;;;;;;;;5051903;28;20021;-73
2022/04/17 02:41:02;;;;;;;3.17;1.15;;;;;;;;;;5052139;28;20147;-73
2022/04/17 02:43:29;;;;;;;1.05;0.40;;;;;;;;;;5051644;28;20120;-74
2022/04/17 02:45:56;;;;;;;2.55;0.70;;;;;;;;;;5051843;28;20036;-72
2022/04/17 02:48:23;;;;;;;1.35;0.50;;;;;;;;;;5051530;28;20053;-72
2022/04/17 02:50:50;;;;;;;2.72;0.45;;;;;;;;;;5050374;28;20029;-73
2022/04/17 02:53:18;;;;;;;1.73;0.30;;;;;;;;;;5051747;28;20075;-72
2022/04/17 02:55:45;;;;;;;6.40;1.83;;;;;;;;;;5050349;28;20371;-72
2022/04/17 02:58:12;;;;;;;2.28;0.60;;;;;;;;;;5051621;28;20024;-73
2022/04/17 03:06:14;;;;;;;1.90;0.70;;;;;;;;;;5051581;28;20044;-72
2022/04/17 03:08:42;;;;;;;3.67;0.70;;;;;;;;;;5050255;28;20029;-73
2022/04/17 03:11:10;;;;;;;2.17;0.47;;;;;;;;;;5051577;28;20025;-72
2022/04/17 03:13:38;;;;;;;5.43;0.93;;;;;;;;;;5050209;28;20029;-73
2022/04/17 03:16:06;;;;;;;3.00;0.40;;;;;;;;;;5051477;28;20416;-72
2022/04/17 03:18:33;;;;;;;1.52;0.57;;;;;;;;;;5051570;28;20482;-73
2022/04/17 03:21:00;;;;;;;2.17;0.52;;;;;;;;;;5052400;28;20420;-73
2022/04/17 03:23:27;;;;;;;2.53;0.50;;;;;;;;;;5054972;28;20096;-74
2022/04/17 03:25:54;;;;;;;3.10;0.40;;;;;;;;;;5054940;28;20052;-74
2022/04/17 03:28:22;;;;;;;0.75;0.30;;;;;;;;;;5053786;28;20025;-74
2022/04/17 03:30:49;;;;;;;2.45;0.40;;;;;;;;;;5054862;28;20018;-74
2022/04/17 03:33:16;;;;;;;1.45;0.60;;;;;;;;;;5054835;28;20032;-74
2022/04/17 03:35:44;;;;;;;1.60;0.40;;;;;;;;;;5054632;28;20111;-74
2022/04/17 03:38:11;;;;;;;3.42;0.40;;;;;;;;;;5053526;28;20021;-73
2022/04/17 03:40:38;;;;;;;2.03;0.30;;;;;;;;;;5053430;28;20071;-71
2022/04/17 03:43:05;;;;;;;1.70;0.50;;;;;;;;;;5053316;28;20135;-72
2022/04/17 03:45:32;;;;;;;1.20;0.43;;;;;;;;;;5054662;28;20021;-73
2022/04/17 03:48:00;;;;;;;1.52;0.40;;;;;;;;;;5053238;28;20119;-71
2022/04/17 03:50:28;;;;;;;1.20;0.35;;;;;;;;;;5053118;28;20024;-73
2022/04/17 03:52:55;;;;;;;2.40;0.43;;;;;;;;;;5053146;28;20025;-73
2022/04/17 03:55:22;;;;;;;1.10;0.35;;;;;;;;;;5054351;28;20025;-73
2022/04/17 03:57:49;;;;;;;2.22;0.47;;;;;;;;;;5053145;28;20059;-72
2022/04/17 04:00:17;;;;;;;2.08;0.40;;;;;;;;;;5052918;28;20053;-74
2022/04/17 04:02:44;;;;;;;1.10;0.30;;;;;;;;;;5054366;28;20025;-72
2022/04/17 04:05:12;;;;;;;3.95;0.40;;;;;;;;;;5054164;28;20104;-73
2022/04/17 04:07:40;;;;;;;1.30;0.28;;;;;;;;;;5054239;28;20025;-73
2022/04/17 04:10:09;;;;;;;3.17;0.40;;;;;;;;;;5052820;28;20033;-73
2022/04/17 04:12:37;;;;;;;0.98;0.30;;;;;;;;;;5054218;28;20073;-73
2022/04/17 04:15:04;;;;;;;1.55;0.30;;;;;;;;;;5054047;28;20033;-73
2022/04/17 04:17:32;;;;;;;2.55;0.35;;;;;;;;;;5052576;28;20040;-72
2022/04/17 04:19:59;;;;;;;2.45;0.30;;;;;;;;;;5053919;28;20021;-72
2022/04/17 04:22:26;;;;;;;3.40;0.63;;;;;;;;;;5053860;28;20029;-72
2022/04/17 04:24:53;;;;;;;2.50;0.40;;;;;;;;;;5052564;28;20029;-73
2022/04/17 04:30:06;;;;;;;1.98;0.43;;;;;;;;;;5054003;28;20035;-73
2022/04/17 04:32:33;;;;;;;0.70;0.30;;;;;;;;;;5053303;28;20397;-73
2022/04/17 04:35:00;;;;;;;0.73;0.30;;;;;;;;;;5053619;28;20074;-73
2022/04/17 04:37:28;;;;;;;2.10;0.45;;;;;;;;;;5053558;28;20122;-74
2022/04/17 04:39:56;;;;;;;3.25;0.45;;;;;;;;;;5053717;28;20017;-72
2022/04/17 04:42:24;;;;;;;2.20;0.40;;;;;;;;;;5053534;28;20028;-73
2022/04/17 04:46:06;;;;;;;0.70;0.32;;;;;;;;;;5052183;28;20035;-73
2022/04/17 04:47:37;;;;;;;2.30;0.30;;;;;;;;;;5053294;28;20120;-72
2022/04/17 04:50:05;;;;;;;1.95;0.40;;;;;;;;;;5053528;28;20175;-71
2022/04/17 04:52:35;;;;;;;3.58;0.45;;;;;;;;;;5053354;28;20033;-70
2022/04/17 04:55:02;;;;;;;;;;;;;;;;;;5053776;28;20116;-72
2022/04/17 04:57:29;;;;;;;1.52;0.30;;;;;;;;;;5052018;28;19944;-71
2022/04/17 04:59:57;;;;;;;2.58;0.35;;;;;;;;;;5053291;28;20024;-71
2022/04/17 05:02:24;;;;;;;1.38;0.30;;;;;;;;;;5053112;28;20017;-70
2022/04/17 05:04:51;;;;;;;2.20;0.40;;;;;;;;;;5053086;28;20029;-73
2022/04/17 05:07:18;;;;;;;2.22;0.40;;;;;;;;;;5053102;28;20029;-70
2022/04/17 05:09:45;;;;;;;3.75;0.40;;;;;;;;;;5052990;28;20432;-71
2022/04/17 05:12:12;;;;;;;2.45;0.40;;;;;;;;;;5053013;28;20024;-73
2022/04/17 05:14:41;;;;;;;1.83;0.40;;;;;;;;;;5053015;28;20453;-72
2022/04/17 05:17:09;;;;;;;1.90;0.40;;;;;;;;;;5052919;28;20427;-72
2022/04/17 05:19:38;;;;;;;2.08;0.38;;;;;;;;;;5052888;28;20028;-71
2022/04/17 05:22:10;;;;;;;1.40;0.40;;;;;;;;;;5052787;28;20024;-71
2022/04/17 05:24:38;;;;;;;1.25;0.40;;;;;;;;;;5051530;28;20040;-71
2022/04/17 05:27:06;;;;;;;3.30;0.70;;;;;;;;;;5052692;28;20393;-71
2022/04/17 05:29:33;;;;;;;1.65;0.40;;;;;;;;;;5052706;28;20433;-71
2022/04/17 05:32:01;;;;;;;2.25;0.43;;;;;;;;;;5052704;28;20070;-71
2022/04/17 05:34:28;;;;;;;1.13;0.40;;;;;;;;;;5051135;28;20021;-71
2022/04/17 05:36:56;;;;;;;0.93;0.30;;;;;;;;;;5051253;28;20108;-70
2022/04/17 05:39:23;;;;;;;1.23;0.60;;;;;;;;;;5051344;28;20497;-70
2022/04/17 05:41:51;;;;;;;1.88;0.40;;;;;;;;;;5051179;28;20493;-70
2022/04/17 05:44:18;;;;;;;0.75;0.30;;;;;;;;;;5051938;28;20031;-71
2022/04/17 05:46:45;;;;;;;1.80;0.40;;;;;;;;;;5052570;28;20029;-70
2022/04/17 05:49:12;;;;;;;1.55;0.50;;;;;;;;;;5052404;28;20083;-70
2022/04/17 05:51:40;;;;;;;3.38;0.50;;;;;;;;;;5052278;28;20159;-71
2022/04/17 05:54:07;;;;;;;3.17;0.50;;;;;;;;;;5052302;28;20190;-71
2022/04/17 05:56:37;;;;;;;1.00;0.50;;;;;;;;;;5051020;28;20111;-71
2022/04/17 05:59:06;;;;;;;1.42;0.30;;;;;;;;;;5051034;28;20420;-71
2022/04/17 06:01:34;;;;;;;2.85;0.40;;;;;;;;;;5052277;28;20028;-70
2022/04/17 06:04:04;;;;;;;2.08;0.50;;;;;;;;;;5052071;28;20021;-70
2022/04/17 06:06:31;;;;;;;2.75;0.60;;;;;;;;;;5052256;28;20029;-70
2022/04/17 06:08:58;;;;;;;1.08;0.40;;;;;;;;;;5052283;28;20485;-70
2022/04/17 06:11:26;;;;;;;0.70;0.30;;;;;;;;;;5052162;28;20343;-71
2022/04/17 06:13:53;;;;;;;2.17;0.40;;;;;;;;;;5051929;28;20024;-70
2022/04/17 06:16:20;;;;;;;1.10;0.52;;;;;;;;;;5050896;28;20025;-71
2022/04/17 06:18:47;;;;;;;1.45;0.30;;;;;;;;;;5050670;28;20401;-71
2022/04/17 06:21:15;;;;;;;0.73;0.30;;;;;;;;;;5052352;28;20021;-71
2022/04/17 06:23:42;;;;;;;1.08;0.38;;;;;;;;;;5051923;28;20477;-72
2022/04/17 06:26:09;;;;;;;2.42;0.30;;;;;;;;;;5052086;28;20029;-72
2022/04/17 06:28:36;;;;;;;1.77;0.30;;;;;;;;;;5050752;28;20029;-72
2022/04/17 06:31:07;;;;;;;1.48;0.32;;;;;;;;;;5050499;28;20473;-72
2022/04/17 06:33:34;;;;;;;1.45;0.40;;;;;;;;;;5051939;28;20433;-72
2022/04/17 06:36:01;;;;;;;0.55;0.20;;;;;;;;;;5050475;28;20410;-73
2022/04/17 06:38:28;;;;;;;2.00;0.50;;;;;;;;;;5051865;28;20025;-72
2022/04/17 06:40:55;;;;;;;3.63;0.60;;;;;;;;;;5051826;28;20068;-72
2022/04/17 06:43:23;;;;;;;1.27;0.45;;;;;;;;;;5050631;28;20047;-72
2022/04/17 06:45:50;;;;;;;2.10;0.98;;;;;;;;;;5051832;28;20029;-72
2022/04/17 06:48:21;;;;;;;1.20;0.40;;;;;;;;;;5050388;28;20117;-71
2022/04/17 06:50:49;;;;;;;1.45;0.40;;;;;;;;;;5051718;28;20025;-72
2022/04/17 06:53:16;;;;;;;4.68;1.15;;;;;;;;;;5051578;28;20021;-72
2022/04/17 06:55:43;;;;;;;2.38;0.98;;;;;;;;;;5055019;28;20499;-72
2022/04/17 06:58:11;;;;;;;3.95;0.50;;;;;;;;;;5054155;28;20098;-72
2022/04/17 07:00:38;;;;;;;1.40;0.40;;;;;;;;;;5055689;28;20017;-71
2022/04/17 07:03:05;;;;;;;2.33;0.50;;;;;;;;;;5054006;28;20021;-72
2022/04/17 07:05:32;;;;;;;1.20;0.80;;;;;;;;;;5055011;28;20017;-72
2022/04/17 07:08:06;;;;;;;2.28;0.57;;;;;;;;;;5055176;28;20032;-71
2022/04/17 07:10:37;;;;;;;1.88;0.60;;;;;;;;;;5055169;28;20061;-72
2022/04/17 07:13:05;;;;;;;1.83;0.70;;;;;;;;;;5053809;28;20021;-72
2022/04/17 07:15:32;;;;;;;2.20;0.60;;;;;;;;;;5053634;28;20021;-72
2022/04/17 07:17:59;;;;;;;2.70;0.40;;;;;;;;;;5053708;28;20025;-72
2022/04/17 07:20:27;;;;;;;0.68;0.40;;;;;;;;;;5055017;28;20415;-73
2022/04/17 07:22:54;;;;;;;3.40;0.90;;;;;;;;;;5053653;28;20043;-73
2022/04/17 07:25:21;;;;;;;4.22;0.82;;;;;;;;;;5054874;28;20017;-71
2022/04/17 07:27:53;;;;;;;1.33;0.80;;;;;;;;;;5054763;28;20032;-72
2022/04/17 07:30:21;;;;;;;3.38;0.80;;;;;;;;;;5053349;28;20033;-72
2022/04/17 07:32:52;;;;;;;3.58;1.10;;;;;;;;;;5054643;28;20031;-72
2022/04/17 07:35:20;;;;;;;5.00;1.45;;;;;;;;;;5054744;28;20546;-71
2022/04/17 07:37:48;;;;;;;2.03;0.80;;;;;;;;;;5054655;28;20111;-72
2022/04/17 07:40:21;;;;;;;1.15;0.80;;;;;;;;;;5054905;28;20469;-71
2022/04/17 07:42:49;;;;;;;1.15;0.80;;;;;;;;;;5054846;28;20460;-73
2022/04/17 07:45:16;;;;;;;6.05;0.90;;;;;;;;;;5054761;28;20024;-71
2022/04/17 07:47:44;;;;;;;3.58;0.80;;;;;;;;;;5053026;28;20049;-71
2022/04/17 07:50:13;;;;;;;2.30;0.80;;;;;;;;;;5053322;28;20416;-72
2022/04/17 07:52:41;;;;;;;3.60;0.75;;;;;;;;;;5054573;28;20497;-72
2022/04/17 07:55:10;;;;;;;3.00;1.15;;;;;;;;;;5054492;28;20020;-72
2022/04/17 08:00:27;;;;;;;2.85;1.00;;;;;;;;;;5054527;28;20036;-73
2022/04/17 08:03:06;;;;;;;2.92;0.80;;;;;;;;;;5053119;28;20436;-71
2022/04/17 08:05:37;;;;;;;4.40;0.90;;;;;;;;;;5053709;28;20068;-72
2022/04/17 08:08:04;;;;;;;3.80;1.02;;;;;;;;;;5053127;28;20025;-71
2022/04/17 08:10:31;;;;;;;2.22;1.10;;;;;;;;;;5054245;28;20029;-71
2022/04/17 08:12:58;;;;;;;2.63;1.33;;;;;;;;;;5054268;28;20021;-71
2022/04/17 08:15:26;;;;;;;3.20;1.05;;;;;;;;;;5054430;28;20487;-71
2022/04/17 08:17:53;;;;;;;2.40;1.20;;;;;;;;;;5054212;28;20021;-71
2022/04/17 08:20:20;;;;;;;3.50;1.15;;;;;;;;;;5052827;28;20393;-72
2022/04/17 08:22:47;;;;;;;7.82;1.40;;;;;;;;;;5054081;28;20056;-72
2022/04/17 08:25:15;;;;;;;3.00;1.30;;;;;;;;;;5054053;28;20492;-72
2022/04/17 08:27:52;;;;;;;1.90;1.00;;;;;;;;;;5053963;28;20025;-72
2022/04/17 08:30:32;;;;;;;4.38;1.20;;;;;;;;;;5053957;28;20452;-72
2022/04/17 08:33:02;;;;;;;5.53;1.60;;;;;;;;;;5053868;28;20025;-73
2022/04/17 08:35:29;;;;;;;2.47;1.10;;;;;;;;;;5052460;28;20021;-72
2022/04/17 08:38:02;;;;;;;2.42;1.13;;;;;;;;;;5053753;28;20053;-72
2022/04/17 08:40:30;;;;;;;6.22;1.35;;;;;;;;;;5053780;28;20048;-72
2022/04/17 08:42:57;;;;;;;3.72;1.33;;;;;;;;;;5053628;28;20028;-72
2022/04/17 08:45:25;;;;;;;2.72;1.30;;;;;;;;;;5053551;28;20025;-72
2022/04/17 08:47:53;;;;;;;2.50;1.27;;;;;;;;;;5051956;28;20124;-72
2022/04/17 08:50:21;;;;;;;2.78;1.30;;;;;;;;;;5053640;28;20029;-72
2022/04/17 08:52:50;;;;;;;8.38;1.75;;;;;;;;;;5053298;28;20096;-72
2022/04/17 08:55:17;;;;;;;4.28;1.48;;;;;;;;;;5053145;28;20366;-72
2022/04/17 08:57:45;;;;;;;4.30;1.48;;;;;;;;;;5053273;28;20072;-71
2022/04/17 09:00:16;;;;;;;4.78;1.65;;;;;;;;;;5051873;28;20021;-71
2022/04/17 09:02:43;;;;;;;4.78;1.50;;;;;;;;;;5053237;28;20438;-72
2022/04/17 09:05:11;;;;;;;5.07;1.45;;;;;;;;;;5053089;28;20043;-72
2022/04/17 09:07:42;;;;;;;1.85;1.20;;;;;;;;;;5052992;28;20025;-72
2022/04/17 09:10:09;;;;;;;5.32;1.55;;;;;;;;;;5053114;28;20479;-71
2022/04/17 09:12:37;;;;;;;3.75;1.50;;;;;;;;;;5053050;28;20025;-72
2022/04/17 09:15:04;;;;;;;2.83;2.00;;;;;;;;;;5051805;28;20481;-71
2022/04/17 09:17:32;;;;;;;4.82;1.67;;;;;;;;;;5052054;28;20100;-72
2022/04/17 09:19:59;;;;;;;4.15;2.15;;;;;;;;;;5053121;28;20067;-71
2022/04/17 09:22:45;;;;;;;5.95;2.00;;;;;;;;;;5052824;28;20051;-71
2022/04/17 09:25:13;;;;;;;3.60;1.65;;;;;;;;;;5051433;28;20112;-72
2022/04/17 09:27:42;;;;;;;5.45;1.40;;;;;;;;;;5052798;28;20029;-72
2022/04/17 09:30:27;;;;;;;4.55;2.05;;;;;;;;;;5052603;28;20523;-73
2022/04/17 09:32:55;;;;;;;2.50;1.60;;;;;;;;;;5051409;28;20512;-72
2022/04/17 09:35:23;;;;;;;4.97;1.92;;;;;;;;;;5052525;28;20049;-72
2022/04/17 09:37:51;;;;;;;2.55;1.70;;;;;;;;;;5052669;28;20040;-72
2022/04/17 09:40:21;;;;;;;3.15;1.70;;;;;;;;;;5051301;28;20532;-72
2022/04/17 09:42:48;;;;;;;5.65;1.80;;;;;;;;;;5051342;28;20021;-72
2022/04/17 09:45:15;;;;;;;3.25;1.90;;;;;;;;;;5051001;28;20036;-72
2022/04/17 09:47:58;;;;;;;7.18;2.70;;;;;;;;;;5051977;28;20045;-71
2022/04/17 09:50:35;;;;;;;4.45;2.97;;;;;;;;;;5050981;28;20028;-72
2022/04/17 09:53:06;;;;;;;4.63;3.28;;;;;;;;;;5052187;28;20036;-73
2022/04/17 09:55:38;;;;;;;;;;;;;;;;;;5052513;28;20497;-72
2022/04/17 09:58:05;;;;;;;6.20;3.08;;;;;;;;;;5050864;28;20292;-71
2022/04/17 10:00:41;;;;;;;6.78;3.10;;;;;;;;;;5050794;28;20676;-71
2022/04/17 10:03:09;;;;;;;5.45;2.92;;;;;;;;;;5052039;28;20099;-71
2022/04/17 10:05:36;;;;;;;4.93;2.88;;;;;;;;;;5052012;28;20056;-72
2022/04/17 10:08:04;;;;;;;4.97;3.30;;;;;;;;;;5050713;28;20036;-72
2022/04/17 10:10:31;;;;;;;7.15;3.75;;;;;;;;;;5050704;28;20182;-71
2022/04/17 10:13:00;;;;;;;6.35;3.15;;;;;;;;;;5050895;28;20426;-70
2022/04/17 10:15:27;;;;;;;8.50;4.10;;;;;;;;;;5050577;28;20562;-72
2022/04/17 10:17:54;;;;;;;5.50;3.20;;;;;;;;;;5052005;28;20043;-72
2022/04/17 10:20:22;;;;;;;5.57;2.60;;;;;;;;;;5051821;28;20021;-71
2022/04/17 10:22:57;;;;;;;5.90;2.95;;;;;;;;;;5051769;28;20017;-71
2022/04/17 10:25:24;;;;;;;6.18;2.50;;;;;;;;;;5051908;28;20027;-71
2022/04/17 10:27:57;;;;;;;7.50;2.67;;;;;;;;;;5051704;28;20025;-71
2022/04/17 10:30:26;;;;;;;4.35;2.35;;;;;;;;;;5054801;28;20036;-71
2022/04/17 10:33:03;;;;;;;5.15;2.20;;;;;;;;;;5055753;28;20382;-70
2022/04/17 10:35:36;;;;;;;6.68;2.55;;;;;;;;;;5055773;28;20037;-70
2022/04/17 10:38:15;;;;;;;10.13;2.80;;;;;;;;;;5055840;28;20100;-72
2022/04/17 10:40:50;;;;;;;5.57;2.30;;;;;;;;;;5055861;28;20017;-72
2022/04/17 10:43:17;;;;;;;6.07;2.20;;;;;;;;;;5055843;28;20029;-73
2022/04/17 10:46:02;;;;;;;3.80;2.10;;;;;;;;;;5055819;28;20024;-71
2022/04/17 10:48:29;;;;;;;4.63;1.92;;;;;;;;;;5055454;28;20053;-71
2022/04/17 10:50:56;;;;;;;5.15;1.90;;;;;;;;;;5055747;28;20482;-75
2022/04/17 10:53:27;;;;;;;3.72;1.95;;;;;;;;;;5055674;28;20025;-72
2022/04/17 10:55:53;;;;;;;;;;;;;;;;;;5055926;28;20024;-73
2022/04/17 10:58:34;;;;;;;4.68;1.75;;;;;;;;;;5054237;28;19909;-75
2022/04/17 11:01:01;;;;;;;2.25;1.55;;;;;;;;;;5055496;28;20025;-73
2022/04/17 11:03:28;;;;;;;2.38;1.33;;;;;;;;;;5055375;28;20025;-74
2022/04/17 11:06:12;;;;;;;4.75;1.50;;;;;;;;;;5054120;28;20029;-72
2022/04/17 11:08:56;;;;;;;3.20;1.63;;;;;;;;;;5055411;28;20057;-73
2022/04/17 11:11:23;;;;;;;5.30;2.10;;;;;;;;;;5054045;28;20443;-73
2022/04/17 11:14:09;;;;;;;5.70;2.47;;;;;;;;;;5055329;28;20017;-73
2022/04/17 11:16:59;;;;;;;4.88;2.03;;;;;;;;;;5055224;28;20129;-74
2022/04/17 11:19:26;;;;;;;5.10;1.80;;;;;;;;;;5053972;28;20107;-73
2022/04/17 11:21:54;;;;;;;4.05;1.73;;;;;;;;;;5055028;28;20031;-73
2022/04/17 11:24:22;;;;;;;3.17;1.17;;;;;;;;;;5055040;28;20074;-74
2022/04/17 11:26:55;;;;;;;7.05;2.08;;;;;;;;;;5055050;28;20028;-73
2022/04/17 11:29:34;;;;;;;5.07;1.60;;;;;;;;;;5055254;28;20017;-73
2022/04/17 11:32:02;;;;;;;3.58;1.60;;;;;;;;;;5053594;28;20545;-74
2022/04/17 11:34:42;;;;;;;3.65;1.45;;;;;;;;;;5053503;28;20108;-72
2022/04/17 11:37:10;;;;;;;3.25;1.35;;;;;;;;;;5054802;28;20381;-72
2022/04/17 11:39:40;;;;;;;4.35;1.50;;;;;;;;;;5054782;28;20055;-73
2022/04/17 11:42:07;;;;;;;2.58;1.33;;;;;;;;;;5052357;28;20070;-74
2022/04/17 11:44:34;;;;;;;2.50;1.58;;;;;;;;;;5054639;28;20105;-74
2022/04/17 11:47:02;;;;;;;6.25;1.73;;;;;;;;;;5054612;28;20098;-74
2022/04/17 11:49:32;;;;;;;2.63;1.50;;;;;;;;;;5054448;28;20139;-74
2022/04/17 11:52:12;;;;;;;3.22;1.23;;;;;;;;;;5053312;28;20044;-74
2022/04/17 11:54:39;;;;;;;4.55;1.50;;;;;;;;;;5054434;28;20028;-73
2022/04/17 11:57:07;;;;;;;5.03;1.15;;;;;;;;;;5053193;28;20021;-73
2022/04/17 11:59:47;;;;;;;2.80;0.85;;;;;;;;;;5053259;28;20179;-74
2022/04/17 12:02:16;;;;;;;4.15;1.20;;;;;;;;;;5054451;28;20071;-73
2022/04/17 12:04:47;;;;;;;3.45;1.45;;;;;;;;;;5053029;28;20029;-73
2022/04/17 12:07:19;;;;;;;3.55;1.20;;;;;;;;;;5052999;28;20029;-73
2022/04/17 12:09:46;;;;;;;2.45;1.15;;;;;;;;;;5053011;28;20108;-74
2022/04/17 12:12:14;;;;;;;3.45;1.50;;;;;;;;;;5052946;28;20025;-73
2022/04/17 12:14:45;;;;;;;5.13;1.10;;;;;;;;;;5054159;28;20059;-73
2022/04/17 12:17:16;;;;;;;4.35;1.00;;;;;;;;;;5054208;28;20029;-72
2022/04/17 12:19:50;;;;;;;5.05;1.20;;;;;;;;;;5052738;28;20102;-73
2022/04/17 12:22:18;;;;;;;4.18;0.90;;;;;;;;;;5052752;28;20417;-73
2022/04/17 12:24:46;;;;;;;4.60;1.20;;;;;;;;;;5053977;28;20020;-73
2022/04/17 12:27:19;;;;;;;4.18;0.82;;;;;;;;;;5052739;28;20075;-73
2022/04/17 12:29:47;;;;;;;3.92;1.05;;;;;;;;;;5052727;28;20112;-73
2022/04/17 12:32:21;;;;;;;3.17;0.93;;;;;;;;;;5053871;28;20021;-73
2022/04/17 12:34:58;;;;;;;3.22;0.95;;;;;;;;;;5052428;28;20048;-74
2022/04/17 12:37:34;;;;;;;3.83;1.00;;;;;;;;;;5052418;28;20028;-73
2022/04/17 12:40:13;;;;;;;3.67;1.10;;;;;;;;;;5053708;28;20021;-73
2022/04/17 12:42:41;;;;;;;4.78;0.90;;;;;;;;;;5052354;28;20031;-72
2022/04/17 12:45:09;;;;;;;2.97;0.80;;;;;;;;;;5052292;28;20029;-72
2022/04/17 12:47:38;;;;;;;1.52;0.82;;;;;;;;;;5053681;28;20056;-73
2022/04/17 12:50:13;;;;;;;3.50;0.88;;;;;;;;;;5052239;28;20055;-72
2022/04/17 12:52:40;;;;;;;4.13;0.90;;;;;;;;;;5053450;28;20033;-72
2022/04/17 12:55:11;;;;;;;2.85;0.90;;;;;;;;;;5053387;28;20024;-72
2022/04/17 12:57:38;;;;;;;3.28;0.73;;;;;;;;;;5053387;28;20039;-72
2022/04/17 13:00:16;;;;;;;3.85;1.00;;;;;;;;;;5053346;28;20515;-73
2022/04/17 13:02:43;;;;;;;3.97;0.77;;;;;;;;;;5052019;28;20406;-73
2022/04/17 13:05:21;;;;;;;2.58;0.80;;;;;;;;;;5053216;28;20032;-73
2022/04/17 13:07:48;;;;;;;4.80;0.85;;;;;;;;;;5052014;28;20025;-72
2022/04/17 13:10:15;;;;;;;3.63;0.85;;;;;;;;;;5051957;28;20031;-72
2022/04/17 13:12:45;;;;;;;3.15;0.80;;;;;;;;;;5053134;28;20087;-73
2022/04/17 13:15:15;;;;;;;4.20;0.63;;;;;;;;;;5052994;28;20028;-73
2022/04/17 13:17:46;;;;;;;4.25;0.95;;;;;;;;;;5053115;28;20032;-73
2022/04/17 13:20:14;;;;;;;2.42;0.80;;;;;;;;;;5052961;28;20021;-72
2022/04/17 13:22:41;;;;;;;3.42;0.77;;;;;;;;;;5051590;28;20055;-72
2022/04/17 13:25:09;;;;;;;2.75;0.60;;;;;;;;;;5051599;28;20029;-72
2022/04/17 13:27:36;;;;;;;3.25;0.75;;;;;;;;;;5051512;28;20021;-73
2022/04/17 13:30:04;;;;;;;5.13;0.90;;;;;;;;;;5052791;28;20025;-73
2022/04/17 13:32:31;;;;;;;1.98;0.88;;;;;;;;;;5052827;28;20033;-72
2022/04/17 13:34:58;;;;;;;2.08;0.63;;;;;;;;;;5052699;28;20391;-72
2022/04/17 13:40:11;;;;;;;2.45;0.50;;;;;;;;;;5052700;28;20036;-72
2022/04/17 13:42:38;;;;;;;2.55;0.60;;;;;;;;;;5052627;28;20021;-72
2022/04/17 13:45:09;;;;;;;2.55;0.70;;;;;;;;;;5052593;28;20025;-72
2022/04/17 13:47:36;;;;;;;;;;;;;;;;;;5052694;28;20048;-73
2022/04/17 13:50:04;;;;;;;2.75;0.60;;;;;;;;;;5051255;28;19911;-73
2022/04/17 13:52:31;;;;;;;2.65;0.70;;;;;;;;;;5052485;28;20032;-73
2022/04/17 13:54:59;;;;;;;1.45;0.50;;;;;;;;;;5052308;28;20024;-72
2022/04/17 13:57:26;;;;;;;2.53;0.80;;;;;;;;;;5052472;28;20021;-73
2022/04/17 13:59:53;;;;;;;2.65;0.73;;;;;;;;;;5052334;28;20017;-73
2022/04/17 14:02:21;;;;;;;3.30;0.60;;;;;;;;;;5052353;28;20079;-72
2022/04/17 14:04:48;;;;;;;2.28;0.60;;;;;;;;;;5051662;28;20027;-73
2022/04/17 14:07:15;;;;;;;2.47;0.55;;;;;;;;;;5052430;28;20392;-72
2022/04/17 14:09:42;;;;;;;3.90;0.98;;;;;;;;;;5052194;28;20473;-72
2022/04/17 14:12:13;;;;;;;4.05;0.93;;;;;;;;;;5051030;28;20053;-73
2022/04/17 14:14:41;;;;;;;4.80;0.60;;;;;;;;;;5052234;28;20060;-72
2022/04/17 14:17:09;;;;;;;2.30;0.55;;;;;;;;;;5052253;28;20031;-73
2022/04/17 14:19:36;;;;;;;4.45;0.90;;;;;;;;;;5052201;28;20446;-72
2022/04/17 14:22:07;;;;;;;1.83;0.70;;;;;;;;;;5052245;28;20477;-73
2022/04/17 14:24:34;;;;;;;;;;;;;;;;;;5052678;28;20482;-73
2022/04/17 14:27:01;;;;;;;1.73;0.60;;;;;;;;;;5052139;28;20288;-72
2022/04/17 14:29:28;;;;;;;4.78;1.30;;;;;;;;;;5052171;28;20047;-72
2022/04/17 14:31:55;;;;;;;4.20;1.52;;;;;;;;;;5052132;28;20039;-73
2022/04/17 14:34:22;;;;;;;4.47;1.67;;;;;;;;;;5052042;28;20025;-72
2022/04/17 14:36:49;;;;;;;3.50;1.38;;;;;;;;;;5050804;28;20159;-72
2022/04/17 14:39:16;;;;;;;2.58;1.30;;;;;;;;;;5050817;28;20025;-73
2022/04/17 14:41:44;;;;;;;4.72;1.40;;;;;;;;;;5052046;28;20013;-73
2022/04/17 14:44:11;;;;;;;2.72;1.40;;;;;;;;;;5050714;28;20489;-73
2022/04/17 14:46:39;;;;;;;2.95;1.48;;;;;;;;;;5051957;28;20017;-72
2022/04/17 14:49:06;;;;;;;2.65;1.60;;;;;;;;;;5051911;28;20124;-72
2022/04/17 14:51:33;;;;;;;5.03;1.60;;;;;;;;;;5050678;28;20439;-73
2022/04/17 14:54:01;;;;;;;2.50;1.30;;;;;;;;;;5051929;28;20036;-72
2022/04/17 14:56:31;;;;;;;3.35;1.70;;;;;;;;;;5050534;28;20029;-72
2022/04/17 14:58:58;;;;;;;3.93;1.73;;;;;;;;;;5051917;28;20028;-72
2022/04/17 15:01:25;;;;;;;4.32;1.55;;;;;;;;;;5050530;28;20021;-72
2022/04/17 15:03:53;;;;;;;3.40;1.65;;;;;;;;;;5051774;28;20108;-73
2022/04/17 15:06:20;;;;;;;3.85;1.90;;;;;;;;;;5051858;28;20025;-72
2022/04/17 15:08:47;;;;;;;3.85;1.95;;;;;;;;;;5051906;28;20432;-72
2022/04/17 15:11:15;;;;;;;2.97;2.15;;;;;;;;;;5051737;28;20075;-72